createdAt,value
2023-03-01T00:00:55.842Z,66.88
2023-03-01T00:06:44.059Z,67.45
2023-03-01T00:09:21.795Z,67.33
2023-03-01T00:12:25.408Z,68.10
2023-03-01T00:19:00.071Z,68.38
2023-03-01T00:25:56.632Z,68.43
2023-03-01T00:28:57.373Z,68.76
2023-03-01T00:42:40.476Z,69.47
2023-03-01T00:45:32.062Z,68.81
2023-03-01T00:48:46.760Z,69.29
2023-03-01T00:52:08.518Z,69.18
2023-03-01T00:59:24.926Z,69.30
2023-03-01T01:03:01.179Z,69.33
2023-03-01T01:05:55.806Z,69.15
2023-03-01T01:09:15.677Z,69.13
2023-03-01T01:12:45.092Z,70.12
2023-03-01T01:27:37.786Z,70.53
2023-03-01T01:39:23.268Z,70.52
2023-03-01T01:45:39.128Z,70.96
2023-03-01T01:53:40.935Z,70.84
2023-03-01T01:56:47.367Z,71.28
2023-03-01T02:03:00.552Z,71.55
2023-03-01T02:13:17.322Z,71.58
2023-03-01T02:16:55.426Z,71.58
2023-03-01T02:24:40.599Z,71.83
2023-03-01T02:32:33.759Z,71.62
2023-03-01T02:36:05.186Z,72.16
2023-03-01T02:43:55.203Z,71.67
2023-03-01T02:50:45.315Z,72.69
2023-03-01T02:54:36.681Z,72.80
2023-03-01T02:57:25.659Z,72.03
2023-03-01T03:00:22.206Z,72.51
2023-03-01T03:03:42.207Z,72.71
2023-03-01T03:07:00.151Z,72.76
2023-03-01T03:10:33.791Z,72.74
2023-03-01T03:13:54.494Z,73.39
2023-03-01T03:20:11.227Z,73.43
2023-03-01T03:23:06.340Z,73.24
2023-03-01T03:30:08.340Z,73.20
2023-03-01T03:40:02.362Z,73.76
2023-03-01T03:47:35.287Z,74.41
2023-03-01T03:50:54.072Z,74.02
2023-03-01T03:57:07.249Z,73.96
2023-03-01T04:04:12.141Z,74.72
2023-03-01T04:15:04.705Z,74.32
2023-03-01T04:18:51.334Z,74.50
2023-03-01T04:22:27.634Z,74.26
2023-03-01T04:25:30.165Z,74.48
2023-03-01T04:32:31.530Z,75.38
2023-03-01T04:36:07.578Z,74.75
2023-03-01T04:39:26.649Z,75.44
2023-03-01T04:46:31.113Z,75.06
2023-03-01T04:51:06.290Z,75.42
2023-03-01T04:54:29.365Z,75.58
2023-03-01T04:58:07.412Z,75.73
2023-03-01T05:02:08.716Z,75.80
2023-03-01T05:05:11.969Z,76.12
2023-03-01T05:08:48.663Z,75.53
2023-03-01T05:19:31.776Z,76.01
2023-03-01T05:25:48.641Z,76.04
2023-03-01T05:38:19.834Z,76.41
2023-03-01T05:41:26.891Z,76.57
2023-03-01T05:49:02.957Z,77.15
2023-03-01T05:52:35.265Z,77.11
2023-03-01T05:56:12.450Z,77.10
2023-03-01T05:59:15.164Z,77.33
2023-03-01T06:16:25.989Z,77.40
2023-03-01T06:23:14.081Z,77.08
2023-03-01T06:29:17.793Z,77.35
2023-03-01T06:32:03.062Z,77.54
2023-03-01T06:34:44.855Z,77.40
2023-03-01T06:37:24.930Z,76.99
2023-03-01T06:40:45.737Z,76.42
2023-03-01T06:43:27.313Z,75.77
2023-03-01T06:46:07.347Z,75.43
2023-03-01T06:48:59.288Z,74.75
2023-03-01T06:58:27.005Z,73.30
2023-03-01T07:01:40.058Z,72.03
2023-03-01T07:08:03.943Z,70.38
2023-03-01T07:11:16.459Z,68.50
2023-03-01T07:14:07.568Z,67.61
2023-03-01T07:17:25.407Z,66.39
2023-03-01T07:20:04.847Z,65.02
2023-03-01T07:23:07.230Z,63.24
2023-03-01T07:26:04.334Z,60.60
2023-03-01T07:28:57.670Z,59.45
2023-03-01T07:32:13.964Z,57.65
2023-03-01T07:34:50.310Z,57.02
2023-03-01T07:38:04.702Z,55.55
2023-03-01T07:47:59.208Z,52.17
2023-03-01T07:50:47.959Z,50.85
2023-03-01T07:54:03.013Z,49.49
2023-03-01T07:56:37.157Z,48.67
2023-03-01T07:59:09.001Z,48.18
2023-03-01T08:01:54.835Z,46.50
2023-03-01T08:04:37.610Z,45.88
2023-03-01T08:07:21.286Z,45.48
2023-03-01T08:10:33.768Z,44.39
2023-03-01T08:13:26.569Z,44.04
2023-03-01T08:20:09.964Z,43.25
2023-03-01T08:22:58.610Z,42.09
2023-03-01T08:25:38.270Z,41.13
2023-03-01T08:28:18.459Z,40.09
2023-03-01T08:31:36.733Z,40.00
2023-03-01T08:41:30.700Z,38.65
2023-03-01T08:44:09.248Z,38.23
2023-03-01T08:48:03.528Z,37.40
2023-03-01T08:51:13.973Z,37.51
2023-03-01T08:55:19.282Z,37.32
2023-03-01T09:05:39.359Z,35.52
2023-03-01T09:08:49.170Z,35.19
2023-03-01T09:18:04.437Z,33.82
2023-03-01T09:20:54.502Z,33.40
2023-03-01T09:23:31.294Z,33.38
2023-03-01T09:27:08.963Z,33.47
2023-03-01T09:38:02.819Z,32.54
2023-03-01T09:44:24.489Z,32.49
2023-03-01T09:51:03.800Z,32.71
2023-03-01T09:54:02.810Z,32.64
2023-03-01T09:57:50.760Z,32.95
2023-03-01T10:01:18.728Z,32.61
2023-03-01T10:05:03.753Z,32.62
2023-03-01T10:08:35.352Z,32.67
2023-03-01T10:12:01.039Z,32.82
2023-03-01T10:19:13.457Z,32.13
2023-03-01T10:22:04.121Z,32.42
2023-03-01T10:24:46.990Z,32.19
2023-03-01T10:28:30.123Z,32.07
2023-03-01T10:31:43.770Z,32.77
2023-03-01T10:34:59.045Z,32.99
2023-03-01T10:41:51.416Z,33.32
2023-03-01T10:45:40.983Z,33.82
2023-03-01T10:48:31.599Z,34.07
2023-03-01T10:58:37.192Z,34.91
2023-03-01T11:01:56.004Z,35.13
2023-03-01T11:05:23.506Z,35.26
2023-03-01T11:08:35.117Z,35.69
2023-03-01T11:11:50.892Z,35.95
2023-03-01T11:15:05.069Z,35.74
2023-03-01T11:17:55.830Z,35.69
2023-03-01T11:20:42.484Z,35.00
2023-03-01T11:23:25.608Z,35.06
2023-03-01T11:26:14.276Z,35.37
2023-03-01T11:28:52.766Z,35.45
2023-03-01T11:31:29.599Z,35.94
2023-03-01T11:34:19.731Z,35.98
2023-03-01T11:37:14.327Z,36.28
2023-03-01T11:40:17.609Z,36.46
2023-03-01T11:43:16.007Z,36.85
2023-03-01T11:46:50.379Z,36.72
2023-03-01T11:50:06.191Z,36.95
2023-03-01T11:53:20.587Z,37.44
2023-03-01T11:56:37.300Z,37.99
2023-03-01T11:59:31.745Z,38.09
2023-03-01T12:02:53.800Z,37.70
2023-03-01T12:06:07.025Z,37.84
2023-03-01T12:09:24.140Z,37.61
2023-03-01T12:13:02.783Z,38.16
2023-03-01T12:16:39.229Z,37.78
2023-03-01T12:19:32.336Z,37.99
2023-03-01T12:23:19.613Z,37.96
2023-03-01T12:27:33.930Z,38.05
2023-03-01T12:38:46.488Z,38.21
2023-03-01T12:42:20.993Z,38.01
2023-03-01T12:58:15.788Z,38.36
2023-03-01T13:01:28.148Z,38.60
2023-03-01T13:08:29.222Z,38.50
2023-03-01T13:11:31.572Z,38.08
2023-03-01T13:18:50.683Z,37.67
2023-03-01T13:25:42.590Z,37.32
2023-03-01T13:29:09.086Z,37.75
2023-03-01T13:31:55.574Z,37.67
2023-03-01T13:35:42.296Z,36.41
2023-03-01T13:39:30.487Z,36.23
2023-03-01T13:43:04.166Z,36.61
2023-03-01T13:46:56.282Z,36.93
2023-03-01T13:50:02.110Z,36.56
2023-03-01T13:53:09.647Z,36.74
2023-03-01T13:56:03.082Z,37.13
2023-03-01T13:59:03.343Z,36.88
2023-03-01T14:02:26.947Z,36.85
2023-03-01T14:05:21.954Z,37.20
2023-03-01T14:08:02.174Z,36.73
2023-03-01T14:11:32.274Z,36.43
2023-03-01T14:15:07.122Z,36.41
2023-03-01T14:18:10.504Z,36.59
2023-03-01T14:21:24.949Z,36.38
2023-03-01T14:24:06.318Z,36.36
2023-03-01T14:26:52.079Z,36.79
2023-03-01T14:29:52.353Z,36.31
2023-03-01T14:36:10.354Z,36.76
2023-03-01T14:42:23.674Z,36.87
2023-03-01T14:49:36.758Z,37.37
2023-03-01T14:53:16.318Z,37.85
2023-03-01T14:56:08.330Z,37.83
2023-03-01T14:59:00.957Z,38.09
2023-03-01T15:02:14.584Z,37.83
2023-03-01T15:08:33.480Z,38.17
2023-03-01T15:11:49.171Z,38.73
2023-03-01T15:19:07.844Z,39.56
2023-03-01T15:21:39.499Z,39.58
2023-03-01T15:24:20.637Z,39.86
2023-03-01T15:26:56.167Z,40.11
2023-03-01T15:29:31.120Z,40.37
2023-03-01T15:32:32.071Z,40.28
2023-03-01T15:35:01.904Z,40.54
2023-03-01T15:37:49.530Z,41.36
2023-03-01T15:40:32.169Z,41.27
2023-03-01T15:43:05.522Z,41.77
2023-03-01T15:45:39.523Z,41.52
2023-03-01T15:48:21.052Z,41.69
2023-03-01T15:50:56.765Z,42.13
2023-03-01T15:53:23.633Z,41.93
2023-03-01T15:55:51.321Z,42.54
2023-03-01T15:58:24.944Z,42.66
2023-03-01T16:01:01.914Z,42.49
2023-03-01T16:03:31.333Z,42.63
2023-03-01T16:05:58.312Z,43.12
2023-03-01T16:08:25.220Z,43.51
2023-03-01T16:10:52.529Z,43.15
2023-03-01T16:13:20.277Z,43.04
2023-03-01T16:15:47.259Z,43.68
2023-03-01T16:18:14.132Z,43.24
2023-03-01T16:20:41.320Z,43.66
2023-03-01T16:23:09.766Z,43.35
2023-03-01T16:25:37.119Z,44.02
2023-03-01T16:28:09.687Z,43.86
2023-03-01T16:30:38.707Z,44.21
2023-03-01T16:33:23.029Z,44.47
2023-03-01T16:35:52.750Z,44.19
2023-03-01T16:38:19.661Z,44.79
2023-03-01T16:40:50.573Z,44.67
2023-03-01T16:43:17.488Z,45.02
2023-03-01T16:45:45.920Z,44.78
2023-03-01T16:48:13.371Z,44.76
2023-03-01T16:50:42.125Z,44.75
2023-03-01T16:53:09.155Z,45.46
2023-03-01T16:55:36.130Z,45.68
2023-03-01T16:58:03.587Z,45.49
2023-03-01T17:00:30.545Z,45.88
2023-03-01T17:02:57.520Z,46.05
2023-03-01T17:05:25.607Z,46.02
2023-03-01T17:07:52.594Z,46.13
2023-03-01T17:10:19.589Z,46.28
2023-03-01T17:12:50.736Z,46.55
2023-03-01T17:15:17.940Z,46.37
2023-03-01T17:17:44.965Z,46.71
2023-03-01T17:20:12.433Z,47.15
2023-03-01T17:22:39.344Z,46.95
2023-03-01T17:25:10.272Z,46.79
2023-03-01T17:27:38.988Z,47.12
2023-03-01T17:30:11.735Z,47.51
2023-03-01T17:32:39.259Z,47.76
2023-03-01T17:35:08.023Z,47.85
2023-03-01T17:37:37.000Z,47.97
2023-03-01T17:40:04.533Z,47.74
2023-03-01T17:42:31.487Z,47.78
2023-03-01T17:44:58.477Z,48.28
2023-03-01T17:47:25.452Z,48.34
2023-03-01T17:49:52.362Z,48.39
2023-03-01T17:52:23.718Z,48.33
2023-03-01T17:54:51.426Z,48.65
2023-03-01T17:57:18.561Z,49.08
2023-03-01T17:59:45.499Z,49.05
2023-03-01T18:02:15.554Z,49.49
2023-03-01T18:04:42.456Z,49.73
2023-03-01T18:07:09.398Z,49.69
2023-03-01T18:09:36.323Z,49.55
2023-03-01T18:12:03.254Z,50.02
2023-03-01T18:14:33.811Z,50.26
2023-03-01T18:17:06.639Z,50.59
2023-03-01T18:19:34.168Z,50.45
2023-03-01T18:22:01.075Z,50.71
2023-03-01T18:24:28.013Z,51.22
2023-03-01T18:26:54.897Z,51.28
2023-03-01T18:29:21.837Z,51.56
2023-03-01T18:31:49.034Z,51.63
2023-03-01T18:34:16.147Z,51.70
2023-03-01T18:36:47.836Z,52.15
2023-03-01T18:39:20.479Z,52.23
2023-03-01T18:41:47.441Z,52.17
2023-03-01T18:44:14.405Z,52.65
2023-03-01T18:46:41.456Z,52.57
2023-03-01T18:49:09.227Z,52.59
2023-03-01T18:51:36.238Z,52.86
2023-03-01T18:54:03.388Z,52.79
2023-03-01T18:56:32.459Z,52.56
2023-03-01T18:59:00.647Z,52.87
2023-03-01T19:01:30.840Z,52.83
2023-03-01T19:03:58.719Z,52.99
2023-03-01T19:06:31.745Z,53.28
2023-03-01T19:08:59.173Z,53.41
2023-03-01T19:11:31.093Z,53.52
2023-03-01T19:13:59.200Z,53.84
2023-03-01T19:16:30.227Z,53.97
2023-03-01T19:19:00.331Z,54.38
2023-03-01T19:21:30.467Z,54.17
2023-03-01T19:23:59.124Z,54.63
2023-03-01T19:26:28.092Z,54.39
2023-03-01T19:28:56.411Z,54.52
2023-03-01T19:31:26.786Z,54.74
2023-03-01T19:34:09.939Z,54.90
2023-03-01T19:36:41.717Z,55.51
2023-03-01T19:39:11.312Z,55.65
2023-03-01T19:41:38.240Z,55.94
2023-03-01T19:44:05.973Z,56.44
2023-03-01T19:46:34.158Z,56.37
2023-03-01T19:49:03.347Z,56.51
2023-03-01T19:51:33.315Z,56.84
2023-03-01T19:54:00.277Z,56.89
2023-03-01T19:56:27.340Z,57.00
2023-03-01T19:59:00.203Z,57.15
2023-03-01T20:01:29.748Z,57.29
2023-03-01T20:03:56.946Z,57.36
2023-03-01T20:06:25.748Z,57.25
2023-03-01T20:08:52.797Z,57.40
2023-03-01T20:11:20.497Z,57.49
2023-03-01T20:13:47.617Z,57.69
2023-03-01T20:16:20.627Z,58.20
2023-03-01T20:18:47.721Z,58.15
2023-03-01T20:21:23.923Z,58.44
2023-03-01T20:23:51.934Z,58.69
2023-03-01T20:26:20.361Z,58.59
2023-03-01T20:28:53.827Z,59.27
2023-03-01T20:31:23.982Z,59.14
2023-03-01T20:33:50.897Z,59.06
2023-03-01T20:36:17.776Z,58.80
2023-03-01T20:38:44.688Z,58.64
2023-03-01T20:41:13.568Z,58.45
2023-03-01T20:43:42.415Z,58.49
2023-03-01T20:46:13.488Z,58.84
2023-03-01T20:48:43.102Z,58.68
2023-03-01T20:51:12.848Z,58.83
2023-03-01T20:53:40.616Z,58.81
2023-03-01T20:56:14.555Z,58.83
2023-03-01T20:58:42.399Z,58.80
2023-03-01T21:01:13.434Z,59.26
2023-03-01T21:03:40.431Z,59.42
2023-03-01T21:06:07.360Z,59.71
2023-03-01T21:08:36.263Z,59.70
2023-03-01T21:11:06.258Z,60.07
2023-03-01T21:13:34.701Z,60.29
2023-03-01T21:16:07.819Z,60.50
2023-03-01T21:18:36.897Z,60.49
2023-03-01T21:21:20.273Z,60.65
2023-03-01T21:23:47.772Z,60.73
2023-03-01T21:26:21.626Z,60.95
2023-03-01T21:28:54.377Z,61.12
2023-03-01T21:31:25.035Z,60.95
2023-03-01T21:33:56.099Z,61.47
2023-03-01T21:36:25.856Z,61.29
2023-03-01T21:38:53.390Z,61.34
2023-03-01T21:41:27.048Z,61.47
2023-03-01T21:43:57.423Z,61.57
2023-03-01T21:46:26.185Z,61.66
2023-03-01T21:48:54.851Z,61.55
2023-03-01T21:51:26.163Z,61.66
2023-03-01T21:53:55.675Z,61.36
2023-03-01T21:56:26.828Z,62.02
2023-03-01T21:58:54.439Z,62.04
2023-03-01T22:01:26.042Z,62.28
2023-03-01T22:03:53.978Z,62.34
2023-03-01T22:06:29.509Z,62.33
2023-03-01T22:09:05.812Z,62.36
2023-03-01T22:11:35.745Z,62.50
2023-03-01T22:14:04.646Z,62.46
2023-03-01T22:16:34.716Z,62.42
2023-03-01T22:19:02.997Z,62.70
2023-03-01T22:21:30.039Z,62.86
2023-03-01T22:23:57.506Z,62.82
2023-03-01T22:26:35.855Z,62.86
2023-03-01T22:29:08.246Z,62.95
2023-03-01T22:31:35.506Z,62.92
2023-03-01T22:34:03.689Z,63.10
2023-03-01T22:36:31.017Z,63.21
2023-03-01T22:39:02.064Z,63.43
2023-03-01T22:41:44.974Z,63.53
2023-03-01T22:44:14.255Z,63.56
2023-03-01T22:46:42.416Z,63.66
2023-03-01T22:49:10.484Z,63.64
2023-03-01T22:51:40.854Z,63.81
2023-03-01T22:54:09.462Z,63.91
2023-03-01T22:56:38.372Z,64.02
2023-03-01T22:59:09.577Z,64.01
2023-03-01T23:01:38.988Z,63.76
2023-03-01T23:04:06.525Z,63.97
2023-03-01T23:06:34.504Z,64.26
2023-03-01T23:09:04.475Z,64.25
2023-03-01T23:11:31.820Z,64.54
2023-03-01T23:13:59.943Z,64.45
2023-03-01T23:16:27.072Z,64.51
2023-03-01T23:19:00.820Z,64.73
2023-03-01T23:21:28.097Z,64.61
2023-03-01T23:23:56.195Z,64.78
2023-03-01T23:26:26.948Z,64.97
2023-03-01T23:28:55.170Z,64.90
2023-03-01T23:31:22.194Z,64.78
2023-03-01T23:33:49.609Z,65.06
2023-03-01T23:36:29.129Z,65.05
2023-03-01T23:39:05.820Z,65.26
2023-03-01T23:41:34.622Z,65.41
2023-03-01T23:44:04.097Z,65.36
2023-03-01T23:46:35.701Z,65.19
2023-03-01T23:49:03.307Z,65.51
2023-03-01T23:51:30.247Z,65.60
2023-03-01T23:54:00.999Z,65.72
2023-03-01T23:56:33.689Z,66.09
2023-03-01T23:59:05.320Z,66.14
